createdAt,value
2019-05-06T00:00:34.097Z,50.11
2019-05-06T00:03:05.102Z,49.91
2019-05-06T00:05:35.461Z,49.02
2019-05-06T00:08:04.856Z,48.44
2019-05-06T00:10:39.184Z,48.88
2019-05-06T00:13:09.784Z,48.09
2019-05-06T00:15:39.276Z,47.98
2019-05-06T00:18:08.650Z,48.79
2019-05-06T00:20:39.110Z,48.61
2019-05-06T00:23:14.273Z,49.25
2019-05-06T00:25:58.094Z,49.06
2019-05-06T00:28:29.345Z,48.87
2019-05-06T00:31:10.427Z,49.81
2019-05-06T00:33:34.127Z,49.24
2019-05-06T00:36:04.534Z,49.55
2019-05-06T00:38:34.250Z,49.71
2019-05-06T00:41:07.139Z,50.01
2019-05-06T00:43:38.976Z,49.61
2019-05-06T00:46:10.707Z,50.01
2019-05-06T00:48:41.151Z,49.72
2019-05-06T00:51:13.556Z,49.28
2019-05-06T00:53:45.634Z,49.09
2019-05-06T00:56:15.075Z,49.62
2019-05-06T00:58:46.534Z,49.46
2019-05-06T01:01:26.292Z,49.64
2019-05-06T01:03:48.083Z,49.50
2019-05-06T01:06:17.585Z,49.85
2019-05-06T01:08:47.221Z,49.84
2019-05-06T01:11:18.662Z,50.13
2019-05-06T01:13:54.395Z,49.78
2019-05-06T01:16:24.939Z,50.22
2019-05-06T01:18:54.277Z,50.20
2019-05-06T01:21:23.958Z,49.85
2019-05-06T01:23:55.909Z,50.06
2019-05-06T01:26:25.496Z,51.39
2019-05-06T01:28:56.314Z,51.36
2019-05-06T01:31:39.741Z,51.48
2019-05-06T01:34:04.101Z,51.33
2019-05-06T01:36:35.022Z,51.06
2019-05-06T01:39:11.190Z,50.52
2019-05-06T01:41:53.665Z,50.12
2019-05-06T01:44:24.441Z,50.04
2019-05-06T01:46:54.836Z,49.89
2019-05-06T01:49:24.619Z,49.62
2019-05-06T01:51:54.775Z,50.02
2019-05-06T01:54:24.985Z,50.05
2019-05-06T01:56:54.622Z,50.39
2019-05-06T01:59:24.991Z,50.51
2019-05-06T02:02:00.566Z,50.37
2019-05-06T02:04:25.420Z,50.58
2019-05-06T02:06:54.888Z,51.08
2019-05-06T02:09:24.848Z,50.66
2019-05-06T02:11:54.348Z,51.30
2019-05-06T02:14:24.678Z,51.59
2019-05-06T02:16:54.751Z,51.84
2019-05-06T02:19:24.370Z,51.94
2019-05-06T02:21:56.542Z,51.27
2019-05-06T02:24:28.723Z,51.24
2019-05-06T02:26:58.086Z,51.58
2019-05-06T02:29:36.013Z,52.55
2019-05-06T02:32:25.911Z,52.30
2019-05-06T02:34:54.788Z,51.86
2019-05-06T02:37:35.055Z,51.42
2019-05-06T02:40:04.378Z,51.35
2019-05-06T02:42:35.943Z,51.41
2019-05-06T02:45:07.077Z,51.06
2019-05-06T02:47:42.941Z,51.55
2019-05-06T02:50:26.779Z,51.32
2019-05-06T02:52:56.149Z,51.12
2019-05-06T02:55:26.663Z,51.56
2019-05-06T02:57:57.162Z,51.96
2019-05-06T03:00:27.880Z,51.04
2019-05-06T03:02:58.746Z,51.11
2019-05-06T03:05:29.231Z,51.21
2019-05-06T03:07:58.523Z,51.42
2019-05-06T03:10:28.877Z,51.23
2019-05-06T03:12:59.193Z,51.19
2019-05-06T03:15:29.647Z,51.54
2019-05-06T03:17:58.620Z,51.91
2019-05-06T03:20:44.016Z,52.47
2019-05-06T03:23:23.841Z,52.73
2019-05-06T03:25:54.292Z,53.30
2019-05-06T03:28:25.422Z,53.21
2019-05-06T03:30:56.690Z,52.82
2019-05-06T03:33:47.426Z,52.13
2019-05-06T03:36:13.719Z,52.89
2019-05-06T03:38:33.446Z,52.52
2019-05-06T03:41:03.157Z,53.21
2019-05-06T03:43:34.132Z,53.10
2019-05-06T03:46:24.071Z,52.13
2019-05-06T03:48:57.398Z,52.17
2019-05-06T03:51:27.902Z,51.76
2019-05-06T03:53:58.774Z,50.97
2019-05-06T03:56:30.003Z,50.49
2019-05-06T03:59:02.804Z,50.20
2019-05-06T04:01:33.805Z,50.32
2019-05-06T04:04:03.735Z,50.79
2019-05-06T04:06:33.721Z,50.14
2019-05-06T04:09:06.923Z,49.53
2019-05-06T04:11:38.318Z,48.41
2019-05-06T04:14:14.033Z,49.11
2019-05-06T04:16:53.527Z,48.53
2019-05-06T04:19:33.332Z,48.22
2019-05-06T04:22:13.611Z,47.41
2019-05-06T04:24:47.090Z,47.00
2019-05-06T04:27:33.509Z,47.42
2019-05-06T04:30:04.706Z,47.64
2019-05-06T04:32:38.836Z,47.75
2019-05-06T04:35:08.443Z,47.55
2019-05-06T04:37:42.742Z,47.69
2019-05-06T04:40:12.944Z,46.96
2019-05-06T04:42:44.558Z,46.65
2019-05-06T04:45:17.253Z,46.77
2019-05-06T04:47:46.110Z,46.70
2019-05-06T04:50:17.118Z,46.58
2019-05-06T04:52:46.576Z,46.68
2019-05-06T04:55:16.164Z,45.70
2019-05-06T04:57:48.747Z,45.20
2019-05-06T05:00:19.164Z,45.33
2019-05-06T05:02:54.777Z,44.93
2019-05-06T05:05:23.927Z,44.26
2019-05-06T05:07:53.333Z,43.45
2019-05-06T05:10:25.329Z,42.80
2019-05-06T05:13:03.645Z,41.39
2019-05-06T05:15:35.919Z,37.98
2019-05-06T05:18:14.419Z,34.57
2019-05-06T05:20:46.535Z,35.75
2019-05-06T05:23:15.889Z,37.62
2019-05-06T05:25:45.135Z,36.46
2019-05-06T05:28:15.725Z,37.48
2019-05-06T05:30:46.258Z,38.10
2019-05-06T05:33:16.878Z,36.81
2019-05-06T05:35:46.465Z,36.91
2019-05-06T05:38:16.858Z,35.43
2019-05-06T05:40:47.254Z,30.62
2019-05-06T05:43:26.547Z,25.96
2019-05-06T05:45:57.257Z,24.27
2019-05-06T05:48:35.078Z,22.60
2019-05-06T05:51:05.693Z,20.08
2019-05-06T05:53:35.060Z,18.21
2019-05-06T05:56:04.567Z,16.51
2019-05-06T05:58:34.243Z,16.60
2019-05-06T06:01:04.252Z,15.06
2019-05-06T06:03:34.908Z,15.31
2019-05-06T06:06:04.306Z,15.40
2019-05-06T06:08:36.773Z,19.06
2019-05-06T06:11:12.197Z,19.65
2019-05-06T06:13:43.333Z,19.96
2019-05-06T06:16:32.846Z,20.27
2019-05-06T06:19:06.113Z,16.91
2019-05-06T06:21:42.660Z,17.43
2019-05-06T06:24:22.422Z,18.56
2019-05-06T06:26:52.147Z,14.98
2019-05-06T06:29:22.827Z,13.02
2019-05-06T06:32:06.806Z,12.43
2019-05-06T06:34:43.577Z,10.41
2019-05-06T06:37:22.568Z,9.21
2019-05-06T06:39:53.273Z,9.06
2019-05-06T06:42:23.913Z,8.62
2019-05-06T06:44:54.894Z,7.70
2019-05-06T06:47:25.648Z,7.91
2019-05-06T06:49:57.646Z,7.64
2019-05-06T06:52:29.581Z,7.10
2019-05-06T06:54:59.029Z,7.03
2019-05-06T06:57:35.824Z,7.00
2019-05-06T07:00:09.268Z,6.80
2019-05-06T07:02:47.810Z,6.37
2019-05-06T07:05:25.463Z,6.55
2019-05-06T07:07:53.213Z,7.09
2019-05-06T07:10:42.895Z,6.27
2019-05-06T07:13:12.741Z,6.31
2019-05-06T07:15:43.353Z,7.61
2019-05-06T07:18:14.531Z,6.49
2019-05-06T07:20:58.266Z,5.85
2019-05-06T07:23:32.693Z,6.43
2019-05-06T07:26:04.952Z,6.06
2019-05-06T07:28:34.327Z,6.45
2019-05-06T07:31:20.748Z,5.17
2019-05-06T07:33:39.065Z,4.61
2019-05-06T07:36:12.857Z,5.16
2019-05-06T07:38:44.570Z,4.11
2019-05-06T07:41:15.916Z,4.07
2019-05-06T07:43:57.073Z,4.25
2019-05-06T07:46:47.863Z,4.12
2019-05-06T07:49:18.669Z,4.06
2019-05-06T07:51:48.207Z,3.43
2019-05-06T07:54:18.655Z,4.32
2019-05-06T07:56:49.154Z,3.84
2019-05-06T07:59:22.291Z,4.67
2019-05-06T08:01:53.842Z,4.59
2019-05-06T08:04:23.097Z,3.91
2019-05-06T08:06:52.676Z,4.85
2019-05-06T08:09:22.227Z,4.74
2019-05-06T08:11:53.151Z,4.94
2019-05-06T08:14:23.788Z,4.73
2019-05-06T08:17:02.365Z,3.93
2019-05-06T08:19:33.595Z,3.97
2019-05-06T08:22:12.006Z,4.09
2019-05-06T08:24:42.523Z,4.31
2019-05-06T08:27:12.340Z,4.40
2019-05-06T08:29:42.470Z,4.30
2019-05-06T08:32:13.006Z,4.45
2019-05-06T08:34:43.841Z,5.10
2019-05-06T08:37:24.472Z,4.69
2019-05-06T08:39:56.964Z,4.73
2019-05-06T08:42:26.337Z,7.67
2019-05-06T08:44:59.448Z,12.50
2019-05-06T08:47:28.975Z,16.56
2019-05-06T08:50:02.448Z,16.22
2019-05-06T08:52:52.319Z,10.68
2019-05-06T08:55:36.634Z,8.16
2019-05-06T08:58:09.289Z,6.11
2019-05-06T09:00:44.287Z,5.34
2019-05-06T09:03:14.369Z,10.74
2019-05-06T09:05:46.571Z,13.93
2019-05-06T09:08:15.832Z,16.63
2019-05-06T09:10:45.228Z,18.39
2019-05-06T09:13:14.653Z,19.27
2019-05-06T09:15:44.052Z,20.94
2019-05-06T09:18:14.420Z,21.10
2019-05-06T09:20:43.933Z,19.38
2019-05-06T09:23:14.496Z,19.20
2019-05-06T09:25:43.582Z,16.93
2019-05-06T09:28:29.089Z,11.96
2019-05-06T09:31:02.216Z,10.47
2019-05-06T09:33:34.513Z,14.79
2019-05-06T09:36:04.904Z,16.24
2019-05-06T09:38:35.518Z,18.40
2019-05-06T09:41:06.130Z,19.78
2019-05-06T09:43:35.503Z,20.63
2019-05-06T09:46:05.017Z,21.62
2019-05-06T09:48:36.929Z,24.03
2019-05-06T09:51:06.304Z,25.88
2019-05-06T09:53:43.270Z,25.77
2019-05-06T09:56:23.021Z,27.53
2019-05-06T09:58:55.054Z,27.80
2019-05-06T10:01:25.582Z,27.64
2019-05-06T10:03:55.969Z,28.25
2019-05-06T10:06:26.492Z,28.60
2019-05-06T10:08:56.889Z,28.08
2019-05-06T10:11:27.297Z,27.85
2019-05-06T10:13:59.180Z,27.45
2019-05-06T10:16:28.569Z,26.47
2019-05-06T10:18:58.864Z,27.10
2019-05-06T10:21:29.580Z,26.99
2019-05-06T10:24:02.193Z,26.78
2019-05-06T10:26:34.897Z,26.04
2019-05-06T10:29:08.598Z,25.27
2019-05-06T10:31:39.672Z,24.40
2019-05-06T10:34:14.385Z,23.85
2019-05-06T10:37:15.333Z,22.87
2019-05-06T10:39:47.291Z,22.08
2019-05-06T10:42:23.063Z,21.34
2019-05-06T10:45:05.263Z,20.83
2019-05-06T10:47:35.637Z,20.68
2019-05-06T10:50:06.735Z,21.25
2019-05-06T10:52:55.059Z,21.35
2019-05-06T10:55:23.869Z,21.31
2019-05-06T10:57:56.273Z,22.35
2019-05-06T11:00:26.676Z,22.92
2019-05-06T11:03:15.187Z,22.89
2019-05-06T11:05:46.077Z,22.77
2019-05-06T11:08:17.157Z,21.78
2019-05-06T11:10:47.639Z,21.66
2019-05-06T11:13:18.246Z,20.71
2019-05-06T11:15:52.867Z,20.57
2019-05-06T11:18:25.211Z,21.14
2019-05-06T11:20:56.363Z,21.44
2019-05-06T11:23:25.751Z,21.30
2019-05-06T11:25:56.113Z,21.16
2019-05-06T11:28:45.235Z,21.61
2019-05-06T11:31:29.073Z,21.93
2019-05-06T11:34:13.288Z,22.60
2019-05-06T11:36:44.433Z,21.65
2019-05-06T11:39:15.870Z,21.86
2019-05-06T11:42:01.661Z,22.84
2019-05-06T11:44:17.450Z,23.75
2019-05-06T11:46:46.881Z,25.14
2019-05-06T11:49:16.258Z,27.03
2019-05-06T11:51:45.030Z,28.73
2019-05-06T11:54:17.573Z,29.69
2019-05-06T11:56:50.914Z,29.79
2019-05-06T11:59:19.218Z,30.55
2019-05-06T12:01:53.180Z,30.99
2019-05-06T12:04:22.932Z,30.65
2019-05-06T12:07:09.174Z,30.20
2019-05-06T12:09:26.613Z,30.39
2019-05-06T12:11:56.095Z,29.86
2019-05-06T12:14:25.461Z,29.64
2019-05-06T12:16:55.819Z,29.68
2019-05-06T12:19:25.410Z,29.75
2019-05-06T12:21:55.804Z,29.15
2019-05-06T12:24:25.270Z,29.36
2019-05-06T12:26:55.681Z,30.17
2019-05-06T12:29:26.077Z,29.30
2019-05-06T12:32:00.240Z,29.52
2019-05-06T12:34:32.508Z,29.15
2019-05-06T12:37:03.507Z,28.55
2019-05-06T12:39:34.278Z,28.27
2019-05-06T12:42:08.959Z,27.43
2019-05-06T12:44:40.147Z,27.62
2019-05-06T12:47:27.005Z,27.39
2019-05-06T12:49:58.544Z,26.70
2019-05-06T12:52:28.249Z,26.82
2019-05-06T12:55:16.380Z,25.98
2019-05-06T12:57:28.990Z,26.20
2019-05-06T12:59:58.353Z,25.82
2019-05-06T13:02:29.126Z,24.88
2019-05-06T13:05:03.217Z,25.25
2019-05-06T13:07:33.915Z,24.75
2019-05-06T13:10:04.314Z,25.45
2019-05-06T13:12:33.928Z,25.06
2019-05-06T13:15:07.680Z,24.30
2019-05-06T13:17:36.491Z,23.44
2019-05-06T13:20:14.450Z,23.80
2019-05-06T13:22:46.061Z,24.36
2019-05-06T13:25:15.686Z,23.93
2019-05-06T13:27:46.974Z,22.03
2019-05-06T13:30:22.707Z,21.38
2019-05-06T13:32:54.988Z,20.62
2019-05-06T13:35:24.393Z,20.07
2019-05-06T13:37:55.070Z,20.18
2019-05-06T13:40:27.227Z,20.65
2019-05-06T13:43:05.386Z,20.20
2019-05-06T13:45:36.882Z,20.53
2019-05-06T13:48:08.912Z,20.45
2019-05-06T13:50:41.920Z,21.16
2019-05-06T13:53:14.671Z,20.71
2019-05-06T13:55:43.418Z,21.59
2019-05-06T13:58:14.202Z,21.55
2019-05-06T14:00:44.591Z,22.16
2019-05-06T14:03:17.564Z,22.41
2019-05-06T14:05:47.284Z,22.98
2019-05-06T14:08:21.703Z,22.74
2019-05-06T14:10:59.255Z,23.79
2019-05-06T14:13:23.989Z,23.12
2019-05-06T14:15:53.547Z,23.04
2019-05-06T14:18:22.869Z,23.01
2019-05-06T14:20:52.329Z,23.05
2019-05-06T14:23:22.281Z,22.82
2019-05-06T14:25:54.652Z,23.64
2019-05-06T14:28:26.784Z,23.70
2019-05-06T14:30:58.833Z,24.74
2019-05-06T14:33:32.270Z,26.20
2019-05-06T14:36:03.223Z,26.54
2019-05-06T14:38:34.058Z,26.49
2019-05-06T14:41:08.142Z,26.60
2019-05-06T14:43:38.308Z,27.17
2019-05-06T14:46:08.827Z,28.42
2019-05-06T14:48:38.278Z,29.02
2019-05-06T14:51:08.578Z,29.72
2019-05-06T14:53:37.965Z,30.15
2019-05-06T14:56:28.376Z,31.16
2019-05-06T14:59:06.742Z,30.42
2019-05-06T15:01:38.390Z,31.41
2019-05-06T15:04:09.295Z,30.42
2019-05-06T15:06:39.630Z,31.19
2019-05-06T15:09:13.141Z,31.09
2019-05-06T15:11:44.516Z,30.18
2019-05-06T15:14:13.909Z,30.13
2019-05-06T15:16:45.743Z,29.69
2019-05-06T15:19:15.318Z,29.61
2019-05-06T15:21:45.719Z,29.22
2019-05-06T15:24:21.039Z,29.61
2019-05-06T15:26:52.015Z,29.41
2019-05-06T15:29:23.754Z,28.67
2019-05-06T15:32:09.748Z,29.76
2019-05-06T15:34:57.138Z,29.76
2019-05-06T15:37:28.167Z,29.05
2019-05-06T15:40:00.025Z,28.51
2019-05-06T15:42:30.429Z,29.29
2019-05-06T15:45:00.941Z,28.34
2019-05-06T15:47:32.289Z,28.32
2019-05-06T15:50:02.378Z,28.50
2019-05-06T15:52:32.868Z,28.20
2019-05-06T15:55:04.651Z,27.76
2019-05-06T15:57:36.107Z,27.17
2019-05-06T16:00:07.598Z,26.97
2019-05-06T16:02:37.517Z,26.65
2019-05-06T16:05:13.920Z,26.65
2019-05-06T16:07:43.401Z,27.12
2019-05-06T16:10:13.479Z,27.46
2019-05-06T16:12:45.692Z,27.84
2019-05-06T16:15:15.112Z,28.37
2019-05-06T16:17:44.505Z,28.83
2019-05-06T16:20:14.975Z,29.88
2019-05-06T16:22:47.057Z,31.07
2019-05-06T16:25:18.102Z,30.86
2019-05-06T16:27:53.843Z,31.48
2019-05-06T16:30:24.066Z,31.84
2019-05-06T16:32:53.376Z,32.06
2019-05-06T16:35:23.780Z,32.59
2019-05-06T16:37:53.265Z,32.61
2019-05-06T16:40:23.216Z,33.16
2019-05-06T16:42:54.650Z,33.48
2019-05-06T16:45:24.421Z,33.50
2019-05-06T16:47:53.822Z,33.29
2019-05-06T16:50:29.499Z,33.17
2019-05-06T16:52:59.230Z,33.45
2019-05-06T16:55:32.953Z,32.59
2019-05-06T16:58:04.370Z,33.03
2019-05-06T17:00:35.422Z,32.76
2019-05-06T17:03:09.043Z,32.42
2019-05-06T17:05:42.451Z,32.41
2019-05-06T17:08:12.371Z,32.33
2019-05-06T17:10:43.367Z,32.59
2019-05-06T17:13:13.656Z,32.80
2019-05-06T17:15:44.068Z,33.25
2019-05-06T17:18:14.462Z,32.52
2019-05-06T17:20:44.866Z,33.37
2019-05-06T17:23:15.286Z,33.09
2019-05-06T17:25:45.782Z,33.56
2019-05-06T17:28:33.479Z,33.87
2019-05-06T17:31:17.196Z,33.88
2019-05-06T17:33:48.159Z,34.18
2019-05-06T17:36:21.884Z,34.08
2019-05-06T17:38:53.619Z,33.94
2019-05-06T17:41:26.531Z,33.51
2019-05-06T17:43:55.489Z,33.14
2019-05-06T17:46:44.381Z,33.03
2019-05-06T17:49:15.352Z,33.22
2019-05-06T17:51:51.979Z,32.66
2019-05-06T17:54:25.742Z,32.70
2019-05-06T17:56:54.571Z,33.30
2019-05-06T17:59:25.839Z,33.01
2019-05-06T18:01:59.038Z,32.61
2019-05-06T18:04:31.070Z,33.00
2019-05-06T18:07:01.522Z,33.13
2019-05-06T18:09:33.429Z,33.34
2019-05-06T18:12:03.346Z,32.93
2019-05-06T18:14:33.784Z,33.59
2019-05-06T18:17:03.773Z,33.09
2019-05-06T18:19:37.101Z,33.25
2019-05-06T18:22:06.513Z,33.38
2019-05-06T18:24:36.969Z,33.06
2019-05-06T18:27:08.954Z,33.25
2019-05-06T18:29:39.451Z,34.12
2019-05-06T18:32:12.758Z,34.12
2019-05-06T18:34:42.187Z,34.24
2019-05-06T18:37:13.693Z,34.28
2019-05-06T18:39:45.782Z,34.44
2019-05-06T18:42:20.402Z,34.88
2019-05-06T18:44:50.362Z,35.15
2019-05-06T18:47:22.210Z,35.17
2019-05-06T18:49:52.616Z,35.07
2019-05-06T18:52:22.911Z,34.52
2019-05-06T18:54:52.714Z,34.65
2019-05-06T18:57:22.698Z,34.98
2019-05-06T18:59:55.106Z,35.36
2019-05-06T19:02:26.833Z,34.62
2019-05-06T19:04:58.184Z,34.24
2019-05-06T19:07:29.842Z,33.92
2019-05-06T19:10:03.228Z,33.86
2019-05-06T19:12:39.900Z,33.88
2019-05-06T19:15:03.494Z,33.84
2019-05-06T19:17:36.164Z,33.93
2019-05-06T19:20:10.518Z,33.73
2019-05-06T19:22:43.092Z,33.43
2019-05-06T19:25:14.634Z,33.63
2019-05-06T19:27:45.097Z,34.30
2019-05-06T19:30:16.080Z,34.46
2019-05-06T19:32:46.542Z,34.37
2019-05-06T19:35:19.637Z,34.06
2019-05-06T19:37:48.921Z,33.82
2019-05-06T19:40:18.527Z,34.02
2019-05-06T19:42:50.307Z,34.42
2019-05-06T19:45:22.955Z,34.30
2019-05-06T19:47:52.403Z,34.52
2019-05-06T19:50:25.782Z,34.44
2019-05-06T19:52:53.972Z,35.05
2019-05-06T19:55:25.723Z,35.04
2019-05-06T19:57:55.126Z,35.20
2019-05-06T20:00:26.344Z,35.13
2019-05-06T20:02:56.730Z,35.18
2019-05-06T20:05:28.713Z,35.55
2019-05-06T20:08:16.657Z,35.83
2019-05-06T20:10:48.634Z,36.21
2019-05-06T20:13:20.781Z,35.90
2019-05-06T20:15:52.097Z,36.25
2019-05-06T20:18:21.618Z,35.88
2019-05-06T20:20:52.804Z,36.22
2019-05-06T20:23:23.166Z,36.32
2019-05-06T20:25:52.152Z,36.98
2019-05-06T20:28:22.647Z,37.17
2019-05-06T20:30:53.067Z,37.47
2019-05-06T20:33:23.844Z,37.45
2019-05-06T20:35:55.190Z,37.54
2019-05-06T20:38:25.602Z,38.16
2019-05-06T20:40:57.158Z,38.20
2019-05-06T20:43:27.562Z,38.55
2019-05-06T20:45:56.820Z,38.88
2019-05-06T20:48:27.322Z,39.31
2019-05-06T20:50:57.866Z,39.73
2019-05-06T20:53:28.350Z,39.79
2019-05-06T20:55:57.824Z,39.83
2019-05-06T20:58:27.229Z,40.65
2019-05-06T21:00:57.699Z,41.13
2019-05-06T21:03:28.187Z,41.52
2019-05-06T21:05:58.499Z,41.64
2019-05-06T21:08:29.101Z,41.85
2019-05-06T21:10:58.593Z,42.08
2019-05-06T21:13:34.848Z,42.26
2019-05-06T21:16:02.330Z,42.32
2019-05-06T21:18:32.722Z,42.22
2019-05-06T21:21:03.113Z,42.29
2019-05-06T21:23:33.849Z,41.64
2019-05-06T21:26:04.798Z,41.66
2019-05-06T21:28:34.176Z,40.74
2019-05-06T21:31:04.657Z,40.91
2019-05-06T21:33:35.037Z,40.56
2019-05-06T21:36:05.549Z,40.30
2019-05-06T21:38:35.138Z,40.24
2019-05-06T21:41:05.535Z,40.78
2019-05-06T21:43:47.063Z,40.89
2019-05-06T21:46:09.014Z,41.45
2019-05-06T21:48:38.424Z,41.79
2019-05-06T21:51:07.923Z,42.52
2019-05-06T21:53:38.283Z,43.29
2019-05-06T21:56:08.689Z,43.70
2019-05-06T21:58:39.318Z,43.64
2019-05-06T22:01:09.730Z,44.28
2019-05-06T22:03:39.232Z,44.26
2019-05-06T22:06:08.758Z,44.50
2019-05-06T22:08:42.364Z,45.20
2019-05-06T22:11:12.002Z,45.42
2019-05-06T22:13:42.535Z,45.38
2019-05-06T22:16:12.369Z,45.26
2019-05-06T22:18:45.595Z,45.72
2019-05-06T22:21:17.755Z,45.60
2019-05-06T22:23:53.074Z,45.55
2019-05-06T22:26:24.121Z,45.87
2019-05-06T22:28:55.188Z,46.12
2019-05-06T22:31:26.133Z,45.91
2019-05-06T22:33:55.901Z,46.51
2019-05-06T22:36:26.572Z,46.50
2019-05-06T22:38:57.903Z,46.71
2019-05-06T22:41:29.460Z,47.07
2019-05-06T22:44:12.654Z,47.41
2019-05-06T22:46:33.010Z,46.99
2019-05-06T22:49:03.667Z,46.88
2019-05-06T22:51:34.007Z,46.93
2019-05-06T22:54:04.630Z,47.13
2019-05-06T22:56:35.026Z,47.43
2019-05-06T22:59:05.329Z,47.35
2019-05-06T23:01:38.868Z,47.09
2019-05-06T23:04:09.953Z,47.32
2019-05-06T23:06:39.266Z,47.42
2019-05-06T23:09:10.128Z,47.88
2019-05-06T23:11:42.436Z,48.25
2019-05-06T23:14:13.792Z,48.31
2019-05-06T23:16:43.300Z,48.28
2019-05-06T23:19:13.691Z,48.35
2019-05-06T23:21:44.304Z,48.61
2019-05-06T23:24:18.061Z,48.41
2019-05-06T23:26:47.423Z,48.80
2019-05-06T23:29:16.831Z,48.92
2019-05-06T23:31:46.253Z,49.25
2019-05-06T23:34:18.229Z,49.33
2019-05-06T23:37:04.920Z,49.05
2019-05-06T23:40:13.456Z,48.87
2019-05-06T23:43:19.382Z,48.78
2019-05-06T23:46:26.314Z,48.81
2019-05-06T23:49:33.177Z,49.27
2019-05-06T23:52:40.142Z,49.51
2019-05-06T23:55:47.103Z,49.27
2019-05-06T23:58:16.475Z,49.02
